createdAt,value
2023-05-05T00:00:05.937Z,4.07
2023-05-05T00:02:34.143Z,3.90
2023-05-05T00:05:02.030Z,4.13
2023-05-05T00:07:29.618Z,4.07
2023-05-05T00:09:57.203Z,4.70
2023-05-05T00:12:24.810Z,4.20
2023-05-05T00:14:52.384Z,4.85
2023-05-05T00:17:19.991Z,4.10
2023-05-05T00:19:47.589Z,4.05
2023-05-05T00:22:15.271Z,4.05
2023-05-05T00:24:42.957Z,3.88
2023-05-05T00:27:10.992Z,3.93
2023-05-05T00:29:38.971Z,3.97
2023-05-05T00:32:06.562Z,4.70
2023-05-05T00:34:34.191Z,4.07
2023-05-05T00:37:01.791Z,4.40
2023-05-05T00:39:29.637Z,4.23
2023-05-05T00:41:57.267Z,4.13
2023-05-05T00:44:41.812Z,4.13
2023-05-05T00:47:10.964Z,4.27
2023-05-05T00:49:38.860Z,4.10
2023-05-05T00:52:07.908Z,4.73
2023-05-05T00:54:36.252Z,4.47
2023-05-05T00:57:04.067Z,3.93
2023-05-05T00:59:34.764Z,3.93
2023-05-05T01:02:02.584Z,4.53
2023-05-05T01:04:30.522Z,3.80
2023-05-05T01:07:03.958Z,4.00
2023-05-05T01:09:31.822Z,3.57
2023-05-05T01:12:23.715Z,3.97
2023-05-05T01:15:17.492Z,3.77
2023-05-05T01:18:21.153Z,3.60
2023-05-05T01:21:19.643Z,4.17
2023-05-05T01:23:50.180Z,4.23
2023-05-05T01:26:33.104Z,4.07
2023-05-05T01:29:24.506Z,4.33
2023-05-05T01:32:04.176Z,4.50
2023-05-05T01:34:39.012Z,4.10
2023-05-05T01:37:18.498Z,4.03
2023-05-05T01:39:55.354Z,4.27
2023-05-05T01:42:25.834Z,5.00
2023-05-05T01:44:54.285Z,4.63
2023-05-05T01:47:23.853Z,4.73
2023-05-05T01:49:52.475Z,5.00
2023-05-05T01:52:21.686Z,4.40
2023-05-05T01:54:50.483Z,4.70
2023-05-05T01:57:21.030Z,4.70
2023-05-05T01:59:51.221Z,5.00
2023-05-05T02:02:20.148Z,5.50
2023-05-05T02:04:49.724Z,5.10
2023-05-05T02:07:17.759Z,4.27
2023-05-05T02:09:46.238Z,4.93
2023-05-05T02:12:14.920Z,5.43
2023-05-05T02:14:44.048Z,5.90
2023-05-05T02:17:13.186Z,5.27
2023-05-05T02:19:45.191Z,4.83
2023-05-05T02:22:12.785Z,4.23
2023-05-05T02:24:40.402Z,5.53
2023-05-05T02:27:11.831Z,4.97
2023-05-05T02:29:48.879Z,4.97
2023-05-05T02:32:24.152Z,5.00
2023-05-05T02:34:54.196Z,4.57
2023-05-05T02:37:24.557Z,5.13
2023-05-05T02:39:59.086Z,5.90
2023-05-05T02:42:32.126Z,6.37
2023-05-05T02:45:05.437Z,6.27
2023-05-05T02:47:36.854Z,6.17
2023-05-05T02:50:05.915Z,6.20
2023-05-05T02:52:34.739Z,6.47
2023-05-05T02:55:04.063Z,5.40
2023-05-05T02:58:08.696Z,5.70
2023-05-05T03:00:46.849Z,6.43
2023-05-05T03:03:20.591Z,6.37
2023-05-05T03:05:59.196Z,5.57
2023-05-05T03:08:40.083Z,5.00
2023-05-05T03:11:18.223Z,5.50
2023-05-05T03:13:50.473Z,5.37
2023-05-05T03:16:18.904Z,5.43
2023-05-05T03:18:49.572Z,5.43
2023-05-05T03:21:17.776Z,5.87
2023-05-05T03:23:45.644Z,5.70
2023-05-05T03:26:18.059Z,6.03
2023-05-05T03:28:45.643Z,5.87
2023-05-05T03:31:13.832Z,5.30
2023-05-05T03:33:41.491Z,5.50
2023-05-05T03:36:09.219Z,5.63
2023-05-05T03:38:36.844Z,5.60
2023-05-05T03:41:04.472Z,5.70
2023-05-05T03:43:32.122Z,5.57
2023-05-05T03:45:59.865Z,6.33
2023-05-05T03:48:27.677Z,5.53
2023-05-05T03:50:55.513Z,5.23
2023-05-05T03:53:23.213Z,6.30
2023-05-05T03:55:50.790Z,5.90
2023-05-05T03:58:18.788Z,5.70
2023-05-05T04:00:46.456Z,5.50
2023-05-05T04:03:14.198Z,6.73
2023-05-05T04:05:42.418Z,7.20
2023-05-05T04:08:10.031Z,7.40
2023-05-05T04:10:37.617Z,6.57
2023-05-05T04:13:05.709Z,7.00
2023-05-05T04:15:33.364Z,6.20
2023-05-05T04:18:01.128Z,7.07
2023-05-05T04:20:28.750Z,6.37
2023-05-05T04:22:56.326Z,6.50
2023-05-05T04:25:23.912Z,7.40
2023-05-05T04:27:51.693Z,6.93
2023-05-05T04:30:19.424Z,7.27
2023-05-05T04:32:47.269Z,7.90
2023-05-05T04:35:14.989Z,6.60
2023-05-05T04:37:42.602Z,6.37
2023-05-05T04:40:10.660Z,6.33
2023-05-05T04:42:38.319Z,6.67
2023-05-05T04:45:06.755Z,6.17
2023-05-05T04:47:38.553Z,5.87
2023-05-05T04:50:07.413Z,6.77
2023-05-05T04:52:35.320Z,6.80
2023-05-05T04:55:03.214Z,6.13
2023-05-05T04:57:30.875Z,7.17
2023-05-05T04:59:59.513Z,7.03
2023-05-05T05:02:27.229Z,6.97
2023-05-05T05:04:57.616Z,6.93
2023-05-05T05:07:25.993Z,7.47
2023-05-05T05:09:53.625Z,8.03
2023-05-05T05:12:23.498Z,6.87
2023-05-05T05:14:51.791Z,7.63
2023-05-05T05:17:20.638Z,6.53
2023-05-05T05:19:48.225Z,6.27
2023-05-05T05:22:15.818Z,7.30
2023-05-05T05:24:43.566Z,8.80
2023-05-05T05:27:28.311Z,7.13
2023-05-05T05:29:56.052Z,7.53
2023-05-05T05:32:23.725Z,7.13
2023-05-05T05:34:51.309Z,7.13
2023-05-05T05:40:22.650Z,7.50
2023-05-05T05:46:36.429Z,7.37
2023-05-05T05:49:04.154Z,7.60
2023-05-05T05:51:31.848Z,12.53
2023-05-05T05:53:59.457Z,6.93
2023-05-05T05:56:27.107Z,7.07
2023-05-05T05:58:54.712Z,6.90
2023-05-05T06:01:22.609Z,6.73
2023-05-05T06:03:50.412Z,6.83
2023-05-05T06:06:18.182Z,6.37
2023-05-05T06:08:46.039Z,6.43
2023-05-05T06:11:13.765Z,6.72
2023-05-05T06:13:42.012Z,6.20
2023-05-05T06:16:09.734Z,5.82
2023-05-05T06:18:37.625Z,5.78
2023-05-05T06:21:05.642Z,6.30
2023-05-05T06:23:33.278Z,6.22
2023-05-05T06:26:01.011Z,6.68
2023-05-05T06:28:34.290Z,6.68
2023-05-05T06:31:02.232Z,6.22
2023-05-05T06:33:29.914Z,6.45
2023-05-05T06:35:57.599Z,6.40
2023-05-05T06:38:28.847Z,6.28
2023-05-05T06:40:58.582Z,6.57
2023-05-05T06:43:26.920Z,5.50
2023-05-05T06:46:09.284Z,6.20
2023-05-05T06:48:39.706Z,6.38
2023-05-05T06:51:07.573Z,6.32
2023-05-05T06:53:35.565Z,5.82
2023-05-05T06:56:04.301Z,5.82
2023-05-05T06:58:42.179Z,5.78
2023-05-05T07:01:20.728Z,6.22
2023-05-05T07:03:57.113Z,6.85
2023-05-05T07:06:27.655Z,6.97
2023-05-05T07:09:15.230Z,6.70
2023-05-05T07:11:58.282Z,6.90
2023-05-05T07:25:44.001Z,5.60
2023-05-05T07:28:17.199Z,5.28
2023-05-05T07:30:45.028Z,5.30
2023-05-05T07:33:12.811Z,5.25
2023-05-05T07:35:52.828Z,5.13
2023-05-05T07:38:56.145Z,5.03
2023-05-05T07:41:23.970Z,4.78
2023-05-05T07:43:51.776Z,4.93
2023-05-05T07:46:19.609Z,4.50
2023-05-05T07:48:47.372Z,4.35
2023-05-05T07:51:15.414Z,4.40
2023-05-05T07:53:47.657Z,4.57
2023-05-05T07:56:21.561Z,4.45
2023-05-05T07:58:52.211Z,3.80
2023-05-05T08:01:20.267Z,4.30
2023-05-05T08:03:51.288Z,4.13
2023-05-05T08:06:22.435Z,4.10
2023-05-05T08:08:56.050Z,3.42
2023-05-05T08:11:29.537Z,3.03
2023-05-05T08:14:00.495Z,3.40
2023-05-05T08:16:28.257Z,3.22
2023-05-05T08:18:56.054Z,3.90
2023-05-05T08:21:23.717Z,3.88
2023-05-05T08:23:51.401Z,2.72
2023-05-05T08:26:19.361Z,3.00
2023-05-05T08:28:47.147Z,3.30
2023-05-05T08:31:15.647Z,3.10
2023-05-05T08:33:43.333Z,3.10
2023-05-05T08:36:23.127Z,2.70
2023-05-05T08:38:51.356Z,2.75
2023-05-05T08:41:22.278Z,2.53
2023-05-05T08:43:50.606Z,2.85
2023-05-05T08:46:18.451Z,2.40
2023-05-05T08:48:47.446Z,2.22
2023-05-05T08:51:19.903Z,2.65
2023-05-05T08:54:01.371Z,2.40
2023-05-05T08:56:43.853Z,2.40
2023-05-05T08:59:13.141Z,2.22
2023-05-05T09:01:41.954Z,2.30
2023-05-05T09:04:09.871Z,2.10
2023-05-05T09:06:38.031Z,2.17
2023-05-05T09:09:06.444Z,1.65
2023-05-05T09:11:35.257Z,1.58
2023-05-05T09:14:03.107Z,1.30
2023-05-05T09:16:30.836Z,1.27
2023-05-05T09:19:05.175Z,1.70
2023-05-05T09:21:33.001Z,1.70
2023-05-05T09:24:08.086Z,1.80
2023-05-05T09:26:38.949Z,1.70
2023-05-05T09:29:06.712Z,1.80
2023-05-05T09:31:36.174Z,2.08
2023-05-05T09:34:14.910Z,1.80
2023-05-05T09:36:43.391Z,1.55
2023-05-05T09:39:14.199Z,0.90
2023-05-05T09:41:43.603Z,0.77
2023-05-05T09:44:20.144Z,0.77
2023-05-05T09:46:55.526Z,1.02
2023-05-05T09:49:40.836Z,0.90
2023-05-05T09:52:14.970Z,0.93
2023-05-05T09:54:50.120Z,1.00
2023-05-05T09:57:39.893Z,0.77
2023-05-05T10:01:52.874Z,0.95
2023-05-05T10:08:29.746Z,1.08
2023-05-05T10:27:17.079Z,1.10
2023-05-05T10:30:10.190Z,1.23
2023-05-05T10:33:13.166Z,1.02
2023-05-05T10:35:49.203Z,1.10
2023-05-05T10:38:20.532Z,1.20
2023-05-05T10:40:52.390Z,1.20
2023-05-05T10:43:20.967Z,1.10
2023-05-05T10:45:53.636Z,1.20
2023-05-05T10:48:39.795Z,1.05
2023-05-05T10:51:31.133Z,0.70
2023-05-05T10:54:28.881Z,0.95
2023-05-05T10:57:12.587Z,0.90
2023-05-05T10:59:53.482Z,1.20
2023-05-05T11:02:22.223Z,1.00
2023-05-05T11:05:21.441Z,1.27
2023-05-05T11:07:51.410Z,1.10
2023-05-05T11:10:26.160Z,1.23
2023-05-05T11:12:59.220Z,1.17
2023-05-05T11:15:33.799Z,0.90
2023-05-05T11:18:12.186Z,1.05
2023-05-05T11:20:44.966Z,0.90
2023-05-05T11:23:15.223Z,1.10
2023-05-05T11:25:47.173Z,0.80
2023-05-05T11:29:27.903Z,1.15
2023-05-05T11:32:15.833Z,1.00
2023-05-05T11:34:50.816Z,0.80
2023-05-05T11:37:23.851Z,0.82
2023-05-05T11:40:12.235Z,0.90
2023-05-05T11:42:41.682Z,0.70
2023-05-05T11:45:25.019Z,1.02
2023-05-05T11:48:29.962Z,0.82
2023-05-05T11:50:58.823Z,0.88
2023-05-05T11:53:27.616Z,1.17
2023-05-05T11:56:11.985Z,0.73
2023-05-05T11:58:40.304Z,0.73
2023-05-05T12:01:09.101Z,0.80
2023-05-05T12:03:38.618Z,1.00
2023-05-05T12:06:12.373Z,1.10
2023-05-05T12:08:41.463Z,0.93
2023-05-05T12:11:10.840Z,0.70
2023-05-05T12:13:39.124Z,0.60
2023-05-05T12:16:15.133Z,0.90
2023-05-05T12:18:43.453Z,0.68
2023-05-05T12:21:21.047Z,0.80
2023-05-05T12:23:49.054Z,0.90
2023-05-05T12:26:28.464Z,0.80
2023-05-05T12:28:58.397Z,0.70
2023-05-05T12:31:41.105Z,0.60
2023-05-05T12:34:12.718Z,0.88
2023-05-05T12:36:41.076Z,0.93
2023-05-05T12:39:19.788Z,0.80
2023-05-05T12:42:01.280Z,1.10
2023-05-05T12:44:42.240Z,0.75
2023-05-05T12:47:32.830Z,0.95
2023-05-05T12:50:10.698Z,0.60
2023-05-05T12:52:44.955Z,0.65
2023-05-05T12:55:30.879Z,0.77
2023-05-05T12:58:57.271Z,0.93
2023-05-05T13:01:25.379Z,0.75
2023-05-05T13:04:06.670Z,0.70
2023-05-05T13:06:36.057Z,0.85
2023-05-05T13:09:25.484Z,0.73
2023-05-05T13:12:07.505Z,0.70
2023-05-05T13:15:21.815Z,0.82
2023-05-05T13:18:33.128Z,0.70
2023-05-05T13:21:06.895Z,0.70
2023-05-05T13:23:46.867Z,0.80
2023-05-05T13:29:37.726Z,0.73
2023-05-05T13:32:26.913Z,0.70
2023-05-05T13:35:27.489Z,0.70
2023-05-05T14:57:38.625Z,0.80
2023-05-05T15:00:07.547Z,0.90
2023-05-05T15:02:35.367Z,0.60
2023-05-05T15:05:03.286Z,0.82
2023-05-05T15:07:31.532Z,0.82
2023-05-05T15:09:59.253Z,0.70
2023-05-05T15:12:26.902Z,0.90
2023-05-05T15:14:55.435Z,0.90
2023-05-05T15:17:23.070Z,0.98
2023-05-05T15:19:51.066Z,0.90
2023-05-05T15:22:18.795Z,0.98
2023-05-05T15:24:46.598Z,0.80
2023-05-05T15:27:14.277Z,1.05
2023-05-05T15:29:41.884Z,0.93
2023-05-05T15:32:09.514Z,0.90
2023-05-05T15:34:37.416Z,0.90
2023-05-05T15:37:05.131Z,0.90
2023-05-05T15:39:32.719Z,1.05
2023-05-05T15:42:03.656Z,1.05
2023-05-05T15:44:31.849Z,1.00
2023-05-05T15:46:59.462Z,1.00
2023-05-05T15:49:27.076Z,0.95
2023-05-05T15:51:54.825Z,0.82
2023-05-05T15:54:22.574Z,0.88
2023-05-05T15:56:50.262Z,0.93
2023-05-05T15:59:19.259Z,1.05
2023-05-05T16:01:47.487Z,1.20
2023-05-05T16:04:15.250Z,0.90
2023-05-05T16:06:43.042Z,1.00
2023-05-05T16:09:10.671Z,1.10
2023-05-05T16:11:38.316Z,1.38
2023-05-05T16:14:06.096Z,0.90
2023-05-05T16:16:33.763Z,0.85
2023-05-05T16:19:01.433Z,1.10
2023-05-05T16:21:29.081Z,1.20
2023-05-05T16:23:57.023Z,0.90
2023-05-05T16:26:24.756Z,1.25
2023-05-05T16:28:52.526Z,1.00
2023-05-05T16:31:25.152Z,1.00
2023-05-05T16:33:52.850Z,1.23
2023-05-05T16:36:20.816Z,1.45
2023-05-05T16:38:49.557Z,1.13
2023-05-05T16:41:17.372Z,1.45
2023-05-05T16:43:44.957Z,1.13
2023-05-05T16:46:12.593Z,1.20
2023-05-05T16:48:40.231Z,1.00
2023-05-05T16:51:08.053Z,1.20
2023-05-05T16:53:35.946Z,0.80
2023-05-05T16:56:06.595Z,0.98
2023-05-05T16:58:34.200Z,0.70
2023-05-05T17:01:03.433Z,0.80
2023-05-05T17:03:31.109Z,0.90
2023-05-05T17:05:58.913Z,1.60
2023-05-05T17:08:26.597Z,1.08
2023-05-05T17:10:54.130Z,0.50
2023-05-05T17:13:23.118Z,0.80
2023-05-05T17:15:51.373Z,0.70
2023-05-05T17:18:21.124Z,0.80
2023-05-05T17:20:49.449Z,0.63
2023-05-05T17:23:17.090Z,0.70
2023-05-05T17:25:44.900Z,0.73
2023-05-05T17:28:12.588Z,0.70
2023-05-05T17:30:40.435Z,0.80
2023-05-05T17:33:08.135Z,0.60
2023-05-05T17:35:36.244Z,0.82
2023-05-05T17:38:04.144Z,1.10
2023-05-05T17:40:31.827Z,0.80
2023-05-05T17:42:59.456Z,0.63
2023-05-05T17:45:27.286Z,0.60
2023-05-05T17:47:56.622Z,1.33
2023-05-05T17:50:24.452Z,0.60
2023-05-05T17:52:52.094Z,0.70
2023-05-05T17:55:20.397Z,1.10
2023-05-05T17:57:48.092Z,0.60
2023-05-05T18:00:16.199Z,0.57
2023-05-05T18:02:43.908Z,0.50
2023-05-05T18:05:12.017Z,0.60
2023-05-05T18:07:39.850Z,0.85
2023-05-05T18:10:08.372Z,0.90
2023-05-05T18:12:36.256Z,0.60
2023-05-05T18:15:04.827Z,0.73
2023-05-05T18:17:32.509Z,0.70
2023-05-05T18:20:00.170Z,0.70
2023-05-05T18:22:27.846Z,0.70
2023-05-05T18:24:58.994Z,0.52
2023-05-05T18:27:29.024Z,0.80
2023-05-05T18:29:56.638Z,0.70
2023-05-05T18:32:24.241Z,0.52
2023-05-05T18:34:51.843Z,0.77
2023-05-05T18:37:19.492Z,0.50
2023-05-05T18:39:47.312Z,0.50
2023-05-05T18:42:14.996Z,0.60
2023-05-05T18:44:42.784Z,0.52
2023-05-05T18:47:10.509Z,0.60
2023-05-05T18:49:38.124Z,0.50
2023-05-05T18:52:05.735Z,0.70
2023-05-05T18:54:33.681Z,0.73
2023-05-05T18:57:03.400Z,0.70
2023-05-05T18:59:31.004Z,0.60
2023-05-05T19:01:59.478Z,0.70
2023-05-05T19:04:31.292Z,0.82
2023-05-05T19:07:00.084Z,0.60
2023-05-05T19:09:28.067Z,0.60
2023-05-05T19:11:55.694Z,0.68
2023-05-05T19:14:23.378Z,0.68
2023-05-05T19:16:51.331Z,0.50
2023-05-05T19:19:19.042Z,0.93
2023-05-05T19:21:46.599Z,0.80
2023-05-05T19:24:14.237Z,0.82
2023-05-05T19:26:44.083Z,0.75
2023-05-05T19:29:12.230Z,0.60
2023-05-05T19:31:39.977Z,0.70
2023-05-05T19:34:07.870Z,0.70
2023-05-05T19:36:35.601Z,0.60
2023-05-05T19:39:04.755Z,0.90
2023-05-05T19:41:32.692Z,0.87
2023-05-05T19:44:00.325Z,0.80
2023-05-05T19:46:28.052Z,0.80
2023-05-05T19:48:55.866Z,0.80
2023-05-05T19:51:23.641Z,1.30
2023-05-05T19:53:51.337Z,1.47
2023-05-05T19:56:18.932Z,1.00
2023-05-05T19:58:57.297Z,1.10
2023-05-05T20:01:25.405Z,0.97
2023-05-05T20:03:54.828Z,1.23
2023-05-05T20:06:23.028Z,1.07
2023-05-05T20:08:50.799Z,1.30
2023-05-05T20:11:19.694Z,1.30
2023-05-05T20:13:47.807Z,1.10
2023-05-05T20:16:15.693Z,0.90
2023-05-05T20:18:43.623Z,1.20
2023-05-05T20:21:11.584Z,1.17
2023-05-05T20:23:39.471Z,1.00
2023-05-05T20:26:07.612Z,1.13
2023-05-05T20:28:35.849Z,1.27
2023-05-05T20:31:03.632Z,1.30
2023-05-05T20:33:31.336Z,1.37
2023-05-05T20:36:02.028Z,0.93
2023-05-05T20:38:29.653Z,1.40
2023-05-05T20:40:57.272Z,1.13
2023-05-05T20:43:25.312Z,1.30
2023-05-05T20:45:53.004Z,0.90
2023-05-05T20:48:20.608Z,1.10
2023-05-05T20:50:48.156Z,1.10
2023-05-05T20:53:18.834Z,1.17
2023-05-05T20:55:46.835Z,1.10
2023-05-05T20:58:14.446Z,1.10
2023-05-05T21:00:42.088Z,1.17
2023-05-05T21:03:09.847Z,1.10
2023-05-05T21:05:38.457Z,1.10
2023-05-05T21:08:06.243Z,1.27
2023-05-05T21:10:34.386Z,1.00
2023-05-05T21:13:02.958Z,1.83
2023-05-05T21:15:31.904Z,1.13
2023-05-05T21:17:59.627Z,1.00
2023-05-05T21:20:27.267Z,1.10
2023-05-05T21:22:56.855Z,1.10
2023-05-05T21:25:24.995Z,1.13
2023-05-05T21:27:53.104Z,1.20
2023-05-05T21:30:22.847Z,1.43
2023-05-05T21:32:51.325Z,1.20
2023-05-05T21:35:19.131Z,1.33
2023-05-05T21:37:47.295Z,1.20
2023-05-05T21:40:16.240Z,1.30
2023-05-05T21:42:44.095Z,1.17
2023-05-05T21:45:12.555Z,1.33
2023-05-05T21:47:40.456Z,1.20
2023-05-05T21:50:09.764Z,1.30
2023-05-05T21:52:37.636Z,1.20
2023-05-05T21:55:05.846Z,1.40
2023-05-05T21:57:33.582Z,1.00
2023-05-05T22:00:01.261Z,1.13
2023-05-05T22:02:29.078Z,1.40
2023-05-05T22:04:56.808Z,1.20
2023-05-05T22:07:25.989Z,1.27
2023-05-05T22:09:53.916Z,1.20
2023-05-05T22:12:21.696Z,1.10
2023-05-05T22:14:49.410Z,1.20
2023-05-05T22:17:17.128Z,1.27
2023-05-05T22:19:44.792Z,1.07
2023-05-05T22:22:12.410Z,1.30
2023-05-05T22:24:40.022Z,1.23
2023-05-05T22:27:07.688Z,1.20
2023-05-05T22:29:36.770Z,1.40
2023-05-05T22:32:04.399Z,1.13
2023-05-05T22:34:32.075Z,1.20
2023-05-05T22:36:59.741Z,1.30
2023-05-05T22:39:27.617Z,1.30
2023-05-05T22:41:55.529Z,1.20
2023-05-05T22:44:23.299Z,1.20
2023-05-05T22:46:51.029Z,1.10
2023-05-05T22:49:18.765Z,1.90
2023-05-05T22:51:47.376Z,1.40
2023-05-05T22:54:15.050Z,1.30
2023-05-05T22:56:42.734Z,1.63
2023-05-05T22:59:10.578Z,1.20
2023-05-05T23:01:38.834Z,1.40
2023-05-05T23:04:06.696Z,1.40
2023-05-05T23:06:34.379Z,1.30
2023-05-05T23:09:02.099Z,1.20
2023-05-05T23:11:29.745Z,1.20
2023-05-05T23:13:57.345Z,1.20
2023-05-05T23:16:25.055Z,1.40
2023-05-05T23:18:52.790Z,1.10
2023-05-05T23:21:20.435Z,1.30
2023-05-05T23:23:48.571Z,1.43
2023-05-05T23:26:16.467Z,1.27
2023-05-05T23:28:44.114Z,1.17
2023-05-05T23:31:11.779Z,1.30
2023-05-05T23:33:39.435Z,1.20
2023-05-05T23:36:07.207Z,1.10
2023-05-05T23:38:34.894Z,1.10
2023-05-05T23:41:02.567Z,1.00
2023-05-05T23:43:31.610Z,1.30
2023-05-05T23:45:59.383Z,1.10
2023-05-05T23:48:27.070Z,1.37
2023-05-05T23:50:55.032Z,1.40
2023-05-05T23:53:22.797Z,1.40
2023-05-05T23:55:50.468Z,1.50
2023-05-05T23:58:18.143Z,1.70
